sensor_id;sensor_type;location;lat;lon;timestamp;temperature;humidity
8220;DHT22;4151;51.110;7.020;2022-08-03T00:01:49;20.00;99.90
8220;DHT22;4151;51.110;7.020;2022-08-03T00:04:15;20.00;99.90
8220;DHT22;4151;51.110;7.020;2022-08-03T00:06:40;19.90;99.90
8220;DHT22;4151;51.110;7.020;2022-08-03T00:09:06;19.90;99.90
8220;DHT22;4151;51.110;7.020;2022-08-03T00:11:32;19.90;99.90
8220;DHT22;4151;51.110;7.020;2022-08-03T00:13:58;19.80;99.90
8220;DHT22;4151;51.110;7.020;2022-08-03T00:16:23;19.80;99.90
8220;DHT22;4151;51.110;7.020;2022-08-03T00:18:50;19.70;99.90
8220;DHT22;4151;51.110;7.020;2022-08-03T00:21:16;19.70;99.90
8220;DHT22;4151;51.110;7.020;2022-08-03T00:23:41;19.70;99.90
8220;DHT22;4151;51.110;7.020;2022-08-03T00:26:07;19.60;99.90
8220;DHT22;4151;51.110;7.020;2022-08-03T00:28:33;19.50;99.90
8220;DHT22;4151;51.110;7.020;2022-08-03T00:30:58;19.50;99.90
8220;DHT22;4151;51.110;7.020;2022-08-03T00:33:24;19.40;99.90
8220;DHT22;4151;51.110;7.020;2022-08-03T00:35:50;19.40;99.90
8220;DHT22;4151;51.110;7.020;2022-08-03T00:38:16;19.30;99.90
8220;DHT22;4151;51.110;7.020;2022-08-03T00:40:42;19.30;99.90
8220;DHT22;4151;51.110;7.020;2022-08-03T00:43:08;19.30;99.90
8220;DHT22;4151;51.110;7.020;2022-08-03T00:45:37;19.30;99.90
8220;DHT22;4151;51.110;7.020;2022-08-03T00:48:04;19.30;99.90
8220;DHT22;4151;51.110;7.020;2022-08-03T00:50:33;19.30;99.90
8220;DHT22;4151;51.110;7.020;2022-08-03T00:53:01;19.20;99.90
8220;DHT22;4151;51.110;7.020;2022-08-03T00:55:28;19.20;99.90
8220;DHT22;4151;51.110;7.020;2022-08-03T00:57:54;19.20;99.90
8220;DHT22;4151;51.110;7.020;2022-08-03T01:00:22;19.20;99.90
8220;DHT22;4151;51.110;7.020;2022-08-03T01:02:48;19.20;99.90
8220;DHT22;4151;51.110;7.020;2022-08-03T01:05:14;19.30;99.90
8220;DHT22;4151;51.110;7.020;2022-08-03T01:07:50;19.30;99.90
8220;DHT22;4151;51.110;7.020;2022-08-03T01:10:36;19.30;99.90
8220;DHT22;4151;51.110;7.020;2022-08-03T01:16:32;19.20;99.90
8220;DHT22;4151;51.110;7.020;2022-08-03T01:18:54;19.20;99.90
8220;DHT22;4151;51.110;7.020;2022-08-03T01:21:30;19.20;99.90
8220;DHT22;4151;51.110;7.020;2022-08-03T01:24:30;19.20;99.90
8220;DHT22;4151;51.110;7.020;2022-08-03T01:29:56;19.10;99.90
8220;DHT22;4151;51.110;7.020;2022-08-03T01:32:45;19.10;99.90
8220;DHT22;4151;51.110;7.020;2022-08-03T01:35:30;19.10;99.90
8220;DHT22;4151;51.110;7.020;2022-08-03T01:38:01;18.90;99.90
8220;DHT22;4151;51.110;7.020;2022-08-03T01:40:28;18.90;99.90
8220;DHT22;4151;51.110;7.020;2022-08-03T01:42:56;18.90;99.90
8220;DHT22;4151;51.110;7.020;2022-08-03T01:45:23;18.90;99.90
8220;DHT22;4151;51.110;7.020;2022-08-03T01:47:51;18.90;99.90
8220;DHT22;4151;51.110;7.020;2022-08-03T01:50:23;18.80;99.90
8220;DHT22;4151;51.110;7.020;2022-08-03T01:52:51;18.80;99.90
8220;DHT22;4151;51.110;7.020;2022-08-03T01:55:18;18.80;99.90
8220;DHT22;4151;51.110;7.020;2022-08-03T01:57:47;18.70;99.90
8220;DHT22;4151;51.110;7.020;2022-08-03T02:00:14;18.70;99.90
8220;DHT22;4151;51.110;7.020;2022-08-03T02:02:42;18.70;99.90
8220;DHT22;4151;51.110;7.020;2022-08-03T02:05:10;18.60;99.90
8220;DHT22;4151;51.110;7.020;2022-08-03T02:07:37;18.70;99.90
8220;DHT22;4151;51.110;7.020;2022-08-03T02:10:05;18.60;99.90
8220;DHT22;4151;51.110;7.020;2022-08-03T02:12:32;18.60;99.90
8220;DHT22;4151;51.110;7.020;2022-08-03T02:14:59;18.60;99.90
8220;DHT22;4151;51.110;7.020;2022-08-03T02:17:26;18.50;99.90
8220;DHT22;4151;51.110;7.020;2022-08-03T02:19:53;18.50;99.90
8220;DHT22;4151;51.110;7.020;2022-08-03T02:22:21;18.50;99.90
8220;DHT22;4151;51.110;7.020;2022-08-03T02:24:48;18.50;99.90
8220;DHT22;4151;51.110;7.020;2022-08-03T02:27:26;18.40;99.90
8220;DHT22;4151;51.110;7.020;2022-08-03T02:30:01;18.40;99.90
8220;DHT22;4151;51.110;7.020;2022-08-03T02:32:33;18.30;99.90
8220;DHT22;4151;51.110;7.020;2022-08-03T02:35:02;18.20;99.90
8220;DHT22;4151;51.110;7.020;2022-08-03T02:37:33;18.20;99.90
8220;DHT22;4151;51.110;7.020;2022-08-03T02:40:03;18.20;99.90
8220;DHT22;4151;51.110;7.020;2022-08-03T02:42:32;18.20;99.90
8220;DHT22;4151;51.110;7.020;2022-08-03T02:45:00;18.20;99.90
8220;DHT22;4151;51.110;7.020;2022-08-03T02:47:27;18.20;99.90
8220;DHT22;4151;51.110;7.020;2022-08-03T02:49:56;18.10;99.90
8220;DHT22;4151;51.110;7.020;2022-08-03T02:52:27;18.10;99.90
8220;DHT22;4151;51.110;7.020;2022-08-03T02:54:57;18.00;99.90
8220;DHT22;4151;51.110;7.020;2022-08-03T02:57:24;18.00;99.90
8220;DHT22;4151;51.110;7.020;2022-08-03T02:59:51;18.10;99.90
8220;DHT22;4151;51.110;7.020;2022-08-03T03:02:18;18.00;99.90
8220;DHT22;4151;51.110;7.020;2022-08-03T03:04:45;18.10;99.90
8220;DHT22;4151;51.110;7.020;2022-08-03T03:07:14;18.00;99.90
8220;DHT22;4151;51.110;7.020;2022-08-03T03:09:42;18.00;99.90
8220;DHT22;4151;51.110;7.020;2022-08-03T03:12:09;18.00;99.90
8220;DHT22;4151;51.110;7.020;2022-08-03T03:14:36;18.00;99.90
8220;DHT22;4151;51.110;7.020;2022-08-03T03:17:02;17.90;99.90
8220;DHT22;4151;51.110;7.020;2022-08-03T03:19:29;17.90;99.90
8220;DHT22;4151;51.110;7.020;2022-08-03T03:22:01;17.80;99.90
8220;DHT22;4151;51.110;7.020;2022-08-03T03:24:28;17.80;99.90
8220;DHT22;4151;51.110;7.020;2022-08-03T03:26:55;17.80;99.90
8220;DHT22;4151;51.110;7.020;2022-08-03T03:29:21;17.80;99.90
8220;DHT22;4151;51.110;7.020;2022-08-03T03:31:47;17.80;99.90
8220;DHT22;4151;51.110;7.020;2022-08-03T03:34:13;17.80;99.90
8220;DHT22;4151;51.110;7.020;2022-08-03T03:36:39;17.80;99.90
8220;DHT22;4151;51.110;7.020;2022-08-03T03:39:05;17.80;99.90
8220;DHT22;4151;51.110;7.020;2022-08-03T03:41:30;17.80;99.90
8220;DHT22;4151;51.110;7.020;2022-08-03T03:43:56;17.80;99.90
8220;DHT22;4151;51.110;7.020;2022-08-03T03:46:22;17.70;99.90
8220;DHT22;4151;51.110;7.020;2022-08-03T03:48:48;17.70;99.90
8220;DHT22;4151;51.110;7.020;2022-08-03T03:51:14;17.70;99.90
8220;DHT22;4151;51.110;7.020;2022-08-03T03:53:53;17.60;99.90
8220;DHT22;4151;51.110;7.020;2022-08-03T03:56:19;17.60;99.90
8220;DHT22;4151;51.110;7.020;2022-08-03T03:58:44;17.60;99.90
8220;DHT22;4151;51.110;7.020;2022-08-03T04:01:11;17.60;99.90
8220;DHT22;4151;51.110;7.020;2022-08-03T04:03:37;17.60;99.90
8220;DHT22;4151;51.110;7.020;2022-08-03T04:06:03;17.60;99.90
8220;DHT22;4151;51.110;7.020;2022-08-03T04:08:47;17.40;99.90
8220;DHT22;4151;51.110;7.020;2022-08-03T04:11:42;17.50;99.90
8220;DHT22;4151;51.110;7.020;2022-08-03T04:14:13;17.50;99.90
8220;DHT22;4151;51.110;7.020;2022-08-03T04:16:43;17.60;99.90
8220;DHT22;4151;51.110;7.020;2022-08-03T04:19:27;17.60;99.90
8220;DHT22;4151;51.110;7.020;2022-08-03T04:21:59;17.60;99.90
8220;DHT22;4151;51.110;7.020;2022-08-03T04:24:31;17.70;99.90
8220;DHT22;4151;51.110;7.020;2022-08-03T04:26:58;17.70;99.90
8220;DHT22;4151;51.110;7.020;2022-08-03T04:29:25;17.70;99.90
8220;DHT22;4151;51.110;7.020;2022-08-03T04:31:53;17.80;99.90
8220;DHT22;4151;51.110;7.020;2022-08-03T04:34:21;17.80;99.90
8220;DHT22;4151;51.110;7.020;2022-08-03T04:36:48;17.80;99.90
8220;DHT22;4151;51.110;7.020;2022-08-03T04:39:23;17.90;99.90
8220;DHT22;4151;51.110;7.020;2022-08-03T04:42:00;17.90;99.90
8220;DHT22;4151;51.110;7.020;2022-08-03T04:44:27;17.80;99.90
8220;DHT22;4151;51.110;7.020;2022-08-03T04:46:54;17.80;99.90
8220;DHT22;4151;51.110;7.020;2022-08-03T04:49:20;17.80;99.90
8220;DHT22;4151;51.110;7.020;2022-08-03T04:51:48;17.80;99.90
8220;DHT22;4151;51.110;7.020;2022-08-03T04:54:14;17.80;99.90
8220;DHT22;4151;51.110;7.020;2022-08-03T04:56:41;17.90;99.90
8220;DHT22;4151;51.110;7.020;2022-08-03T04:59:08;17.90;99.90
8220;DHT22;4151;51.110;7.020;2022-08-03T05:01:34;18.00;99.90
8220;DHT22;4151;51.110;7.020;2022-08-03T05:04:00;18.00;99.90
8220;DHT22;4151;51.110;7.020;2022-08-03T05:06:26;18.00;99.90
8220;DHT22;4151;51.110;7.020;2022-08-03T05:08:52;18.10;99.90
8220;DHT22;4151;51.110;7.020;2022-08-03T05:11:18;18.20;99.90
8220;DHT22;4151;51.110;7.020;2022-08-03T05:13:44;18.20;99.90
8220;DHT22;4151;51.110;7.020;2022-08-03T05:16:10;18.30;99.90
8220;DHT22;4151;51.110;7.020;2022-08-03T05:18:36;18.30;99.90
8220;DHT22;4151;51.110;7.020;2022-08-03T05:21:03;18.40;99.90
8220;DHT22;4151;51.110;7.020;2022-08-03T05:23:29;18.50;99.90
8220;DHT22;4151;51.110;7.020;2022-08-03T05:25:55;18.60;99.90
8220;DHT22;4151;51.110;7.020;2022-08-03T05:28:20;18.60;99.90
8220;DHT22;4151;51.110;7.020;2022-08-03T05:30:46;18.70;99.90
8220;DHT22;4151;51.110;7.020;2022-08-03T05:33:12;18.80;99.90
8220;DHT22;4151;51.110;7.020;2022-08-03T05:35:37;18.90;99.90
8220;DHT22;4151;51.110;7.020;2022-08-03T05:38:04;18.90;99.90
8220;DHT22;4151;51.110;7.020;2022-08-03T05:40:30;19.00;99.90
8220;DHT22;4151;51.110;7.020;2022-08-03T05:42:56;19.00;99.90
8220;DHT22;4151;51.110;7.020;2022-08-03T05:45:22;19.00;99.90
8220;DHT22;4151;51.110;7.020;2022-08-03T05:47:48;19.10;99.90
8220;DHT22;4151;51.110;7.020;2022-08-03T05:50:15;19.30;99.90
8220;DHT22;4151;51.110;7.020;2022-08-03T05:52:41;19.40;99.90
8220;DHT22;4151;51.110;7.020;2022-08-03T05:55:08;19.50;99.90
8220;DHT22;4151;51.110;7.020;2022-08-03T05:57:34;19.60;99.90
8220;DHT22;4151;51.110;7.020;2022-08-03T06:00:08;19.80;99.90
8220;DHT22;4151;51.110;7.020;2022-08-03T06:02:34;19.90;99.90
8220;DHT22;4151;51.110;7.020;2022-08-03T06:05:00;20.10;99.90
8220;DHT22;4151;51.110;7.020;2022-08-03T06:07:27;20.30;99.90
8220;DHT22;4151;51.110;7.020;2022-08-03T06:09:52;20.50;99.90
8220;DHT22;4151;51.110;7.020;2022-08-03T06:12:18;20.70;99.90
8220;DHT22;4151;51.110;7.020;2022-08-03T06:14:44;20.90;99.90
8220;DHT22;4151;51.110;7.020;2022-08-03T06:17:10;21.10;99.90
8220;DHT22;4151;51.110;7.020;2022-08-03T06:19:35;21.30;99.90
8220;DHT22;4151;51.110;7.020;2022-08-03T06:22:01;21.50;99.90
8220;DHT22;4151;51.110;7.020;2022-08-03T06:24:27;21.70;99.90
8220;DHT22;4151;51.110;7.020;2022-08-03T06:26:52;21.90;99.90
8220;DHT22;4151;51.110;7.020;2022-08-03T06:29:18;22.00;99.90
8220;DHT22;4151;51.110;7.020;2022-08-03T06:31:43;22.20;99.90
8220;DHT22;4151;51.110;7.020;2022-08-03T06:34:09;22.40;99.90
8220;DHT22;4151;51.110;7.020;2022-08-03T06:36:35;22.50;99.90
8220;DHT22;4151;51.110;7.020;2022-08-03T06:39:01;22.60;99.90
8220;DHT22;4151;51.110;7.020;2022-08-03T06:41:26;22.70;99.90
8220;DHT22;4151;51.110;7.020;2022-08-03T06:43:52;22.80;99.90
8220;DHT22;4151;51.110;7.020;2022-08-03T06:46:19;22.90;99.90
8220;DHT22;4151;51.110;7.020;2022-08-03T06:48:45;22.90;99.90
8220;DHT22;4151;51.110;7.020;2022-08-03T06:51:11;23.10;99.90
8220;DHT22;4151;51.110;7.020;2022-08-03T06:53:37;23.20;99.90
8220;DHT22;4151;51.110;7.020;2022-08-03T06:56:06;23.20;99.90
8220;DHT22;4151;51.110;7.020;2022-08-03T06:58:32;23.30;99.90
8220;DHT22;4151;51.110;7.020;2022-08-03T07:00:58;23.40;99.90
8220;DHT22;4151;51.110;7.020;2022-08-03T07:03:23;23.40;99.90
8220;DHT22;4151;51.110;7.020;2022-08-03T07:05:49;23.50;99.90
8220;DHT22;4151;51.110;7.020;2022-08-03T07:08:15;23.50;99.90
8220;DHT22;4151;51.110;7.020;2022-08-03T07:10:41;23.60;99.90
8220;DHT22;4151;51.110;7.020;2022-08-03T07:13:07;23.70;99.90
8220;DHT22;4151;51.110;7.020;2022-08-03T07:15:33;23.80;99.90
8220;DHT22;4151;51.110;7.020;2022-08-03T07:17:58;23.90;99.90
8220;DHT22;4151;51.110;7.020;2022-08-03T07:20:24;24.00;99.90
8220;DHT22;4151;51.110;7.020;2022-08-03T07:22:50;24.20;99.90
8220;DHT22;4151;51.110;7.020;2022-08-03T07:25:15;24.30;99.90
8220;DHT22;4151;51.110;7.020;2022-08-03T07:27:45;24.30;99.90
8220;DHT22;4151;51.110;7.020;2022-08-03T07:30:12;24.40;99.90
8220;DHT22;4151;51.110;7.020;2022-08-03T07:32:39;24.50;99.90
8220;DHT22;4151;51.110;7.020;2022-08-03T07:35:06;24.60;99.90
8220;DHT22;4151;51.110;7.020;2022-08-03T07:37:32;24.70;99.90
8220;DHT22;4151;51.110;7.020;2022-08-03T07:39:59;24.70;99.90
8220;DHT22;4151;51.110;7.020;2022-08-03T07:42:26;24.70;99.90
8220;DHT22;4151;51.110;7.020;2022-08-03T07:44:52;24.60;99.90
8220;DHT22;4151;51.110;7.020;2022-08-03T07:47:22;24.70;99.90
8220;DHT22;4151;51.110;7.020;2022-08-03T07:49:48;24.60;99.90
8220;DHT22;4151;51.110;7.020;2022-08-03T07:52:14;24.70;99.90
8220;DHT22;4151;51.110;7.020;2022-08-03T07:54:58;24.80;99.90
8220;DHT22;4151;51.110;7.020;2022-08-03T07:57:24;24.90;99.90
8220;DHT22;4151;51.110;7.020;2022-08-03T07:59:49;24.90;99.90
8220;DHT22;4151;51.110;7.020;2022-08-03T08:02:15;25.00;99.90
8220;DHT22;4151;51.110;7.020;2022-08-03T08:04:40;25.00;99.90
8220;DHT22;4151;51.110;7.020;2022-08-03T08:07:06;25.10;99.90
8220;DHT22;4151;51.110;7.020;2022-08-03T08:09:32;25.30;99.90
8220;DHT22;4151;51.110;7.020;2022-08-03T08:11:58;25.30;99.90
8220;DHT22;4151;51.110;7.020;2022-08-03T08:14:24;25.50;99.90
8220;DHT22;4151;51.110;7.020;2022-08-03T08:16:50;25.50;99.90
8220;DHT22;4151;51.110;7.020;2022-08-03T08:19:16;25.60;99.90
8220;DHT22;4151;51.110;7.020;2022-08-03T08:21:42;25.60;99.90
8220;DHT22;4151;51.110;7.020;2022-08-03T08:24:08;25.60;99.90
8220;DHT22;4151;51.110;7.020;2022-08-03T08:26:33;25.70;99.90
8220;DHT22;4151;51.110;7.020;2022-08-03T08:28:59;25.80;99.90
8220;DHT22;4151;51.110;7.020;2022-08-03T08:31:25;25.90;99.90
8220;DHT22;4151;51.110;7.020;2022-08-03T08:33:50;26.00;99.90
8220;DHT22;4151;51.110;7.020;2022-08-03T08:36:16;26.10;99.90
8220;DHT22;4151;51.110;7.020;2022-08-03T08:38:42;26.20;99.90
8220;DHT22;4151;51.110;7.020;2022-08-03T08:41:10;26.40;99.90
8220;DHT22;4151;51.110;7.020;2022-08-03T08:43:36;26.50;99.90
8220;DHT22;4151;51.110;7.020;2022-08-03T08:46:02;26.70;99.90
8220;DHT22;4151;51.110;7.020;2022-08-03T08:48:29;26.70;99.90
8220;DHT22;4151;51.110;7.020;2022-08-03T08:50:56;27.10;99.90
8220;DHT22;4151;51.110;7.020;2022-08-03T08:53:24;27.40;99.90
8220;DHT22;4151;51.110;7.020;2022-08-03T08:55:51;27.70;99.90
8220;DHT22;4151;51.110;7.020;2022-08-03T08:58:20;27.80;99.90
8220;DHT22;4151;51.110;7.020;2022-08-03T09:00:47;28.00;99.90
8220;DHT22;4151;51.110;7.020;2022-08-03T09:03:13;28.10;99.90
8220;DHT22;4151;51.110;7.020;2022-08-03T09:05:42;28.20;99.90
8220;DHT22;4151;51.110;7.020;2022-08-03T09:08:08;28.40;99.90
8220;DHT22;4151;51.110;7.020;2022-08-03T09:10:33;28.60;99.90
8220;DHT22;4151;51.110;7.020;2022-08-03T09:12:59;28.60;99.90
8220;DHT22;4151;51.110;7.020;2022-08-03T09:15:27;28.80;99.90
8220;DHT22;4151;51.110;7.020;2022-08-03T09:17:55;29.00;99.90
8220;DHT22;4151;51.110;7.020;2022-08-03T09:20:22;29.30;99.90
8220;DHT22;4151;51.110;7.020;2022-08-03T09:22:57;29.60;99.90
8220;DHT22;4151;51.110;7.020;2022-08-03T09:25:39;29.70;99.90
8220;DHT22;4151;51.110;7.020;2022-08-03T09:28:10;29.80;99.90
8220;DHT22;4151;51.110;7.020;2022-08-03T09:30:38;30.10;99.90
8220;DHT22;4151;51.110;7.020;2022-08-03T09:33:10;30.40;99.90
8220;DHT22;4151;51.110;7.020;2022-08-03T09:35:43;30.80;99.90
8220;DHT22;4151;51.110;7.020;2022-08-03T09:38:23;30.70;99.90
8220;DHT22;4151;51.110;7.020;2022-08-03T09:40:51;30.40;99.90
8220;DHT22;4151;51.110;7.020;2022-08-03T09:43:17;30.60;99.90
8220;DHT22;4151;51.110;7.020;2022-08-03T09:45:43;30.60;99.90
8220;DHT22;4151;51.110;7.020;2022-08-03T09:48:28;30.30;99.90
8220;DHT22;4151;51.110;7.020;2022-08-03T09:50:56;29.90;99.90
8220;DHT22;4151;51.110;7.020;2022-08-03T09:53:23;30.40;99.90
8220;DHT22;4151;51.110;7.020;2022-08-03T09:55:57;31.00;99.90
8220;DHT22;4151;51.110;7.020;2022-08-03T09:58:25;31.60;99.90
8220;DHT22;4151;51.110;7.020;2022-08-03T10:00:52;31.70;99.90
8220;DHT22;4151;51.110;7.020;2022-08-03T10:03:19;31.30;99.90
8220;DHT22;4151;51.110;7.020;2022-08-03T10:05:44;31.70;99.90
8220;DHT22;4151;51.110;7.020;2022-08-03T10:08:15;32.50;99.90
8220;DHT22;4151;51.110;7.020;2022-08-03T10:10:43;33.00;99.90
8220;DHT22;4151;51.110;7.020;2022-08-03T10:13:12;32.70;99.90
8220;DHT22;4151;51.110;7.020;2022-08-03T10:15:39;32.50;99.90
8220;DHT22;4151;51.110;7.020;2022-08-03T10:18:05;32.20;99.90
8220;DHT22;4151;51.110;7.020;2022-08-03T10:20:38;31.50;99.90
8220;DHT22;4151;51.110;7.020;2022-08-03T10:23:07;30.60;99.90
8220;DHT22;4151;51.110;7.020;2022-08-03T10:25:35;31.30;99.90
8220;DHT22;4151;51.110;7.020;2022-08-03T10:28:02;31.50;99.90
8220;DHT22;4151;51.110;7.020;2022-08-03T10:30:31;31.30;99.90
8220;DHT22;4151;51.110;7.020;2022-08-03T10:33:13;31.60;99.90
8220;DHT22;4151;51.110;7.020;2022-08-03T10:35:41;31.90;99.90
8220;DHT22;4151;51.110;7.020;2022-08-03T10:38:17;32.20;99.90
8220;DHT22;4151;51.110;7.020;2022-08-03T10:40:43;32.20;99.90
8220;DHT22;4151;51.110;7.020;2022-08-03T10:43:15;32.20;99.90
8220;DHT22;4151;51.110;7.020;2022-08-03T10:45:43;32.30;99.90
8220;DHT22;4151;51.110;7.020;2022-08-03T10:48:10;33.10;99.90
8220;DHT22;4151;51.110;7.020;2022-08-03T10:50:36;33.50;99.90
8220;DHT22;4151;51.110;7.020;2022-08-03T10:53:06;34.10;99.90
8220;DHT22;4151;51.110;7.020;2022-08-03T10:55:36;34.10;98.70
8220;DHT22;4151;51.110;7.020;2022-08-03T11:01:09;33.00;97.50
8220;DHT22;4151;51.110;7.020;2022-08-03T11:06:25;33.30;97.40
8220;DHT22;4151;51.110;7.020;2022-08-03T11:11:38;33.00;97.40
8220;DHT22;4151;51.110;7.020;2022-08-03T11:16:39;33.60;96.10
8220;DHT22;4151;51.110;7.020;2022-08-03T11:19:11;34.50;95.30
8220;DHT22;4151;51.110;7.020;2022-08-03T11:30:22;33.90;94.50
8220;DHT22;4151;51.110;7.020;2022-08-03T11:32:57;34.10;94.30
8220;DHT22;4151;51.110;7.020;2022-08-03T11:35:28;34.40;94.40
8220;DHT22;4151;51.110;7.020;2022-08-03T11:45:36;36.00;93.10
8220;DHT22;4151;51.110;7.020;2022-08-03T11:48:13;36.50;91.30
8220;DHT22;4151;51.110;7.020;2022-08-03T11:50:40;36.30;90.90
8220;DHT22;4151;51.110;7.020;2022-08-03T11:53:07;36.10;90.80
8220;DHT22;4151;51.110;7.020;2022-08-03T11:55:37;36.20;91.00
8220;DHT22;4151;51.110;7.020;2022-08-03T11:58:04;36.40;90.00
8220;DHT22;4151;51.110;7.020;2022-08-03T12:00:31;36.50;91.30
8220;DHT22;4151;51.110;7.020;2022-08-03T12:03:06;37.20;90.30
8220;DHT22;4151;51.110;7.020;2022-08-03T12:08:12;38.90;85.20
8220;DHT22;4151;51.110;7.020;2022-08-03T12:10:39;39.30;82.10
8220;DHT22;4151;51.110;7.020;2022-08-03T12:13:06;39.00;80.00
8220;DHT22;4151;51.110;7.020;2022-08-03T12:15:35;38.30;80.90
8220;DHT22;4151;51.110;7.020;2022-08-03T12:18:02;37.30;81.30
8220;DHT22;4151;51.110;7.020;2022-08-03T12:20:30;36.40;81.70
8220;DHT22;4151;51.110;7.020;2022-08-03T12:23:06;35.90;82.10
8220;DHT22;4151;51.110;7.020;2022-08-03T12:25:33;35.20;84.00
8220;DHT22;4151;51.110;7.020;2022-08-03T12:28:10;35.20;83.60
8220;DHT22;4151;51.110;7.020;2022-08-03T12:30:37;35.30;85.40
8220;DHT22;4151;51.110;7.020;2022-08-03T12:33:20;35.10;84.90
8220;DHT22;4151;51.110;7.020;2022-08-03T12:36:09;35.50;84.80
8220;DHT22;4151;51.110;7.020;2022-08-03T12:38:36;35.80;84.50
8220;DHT22;4151;51.110;7.020;2022-08-03T12:41:07;35.80;83.20
8220;DHT22;4151;51.110;7.020;2022-08-03T12:43:36;35.30;83.80
8220;DHT22;4151;51.110;7.020;2022-08-03T12:46:13;35.00;83.20
8220;DHT22;4151;51.110;7.020;2022-08-03T12:49:01;35.10;86.80
8220;DHT22;4151;51.110;7.020;2022-08-03T12:51:29;36.30;82.50
8220;DHT22;4151;51.110;7.020;2022-08-03T12:53:56;36.30;82.50
8220;DHT22;4151;51.110;7.020;2022-08-03T12:56:22;36.40;84.00
8220;DHT22;4151;51.110;7.020;2022-08-03T12:58:47;37.50;81.70
8220;DHT22;4151;51.110;7.020;2022-08-03T13:01:15;38.50;78.30
8220;DHT22;4151;51.110;7.020;2022-08-03T13:03:41;39.60;77.90
8220;DHT22;4151;51.110;7.020;2022-08-03T13:06:17;38.70;75.40
8220;DHT22;4151;51.110;7.020;2022-08-03T13:08:43;38.70;75.70
8220;DHT22;4151;51.110;7.020;2022-08-03T13:11:25;38.90;77.50
8220;DHT22;4151;51.110;7.020;2022-08-03T13:13:53;38.80;75.50
8220;DHT22;4151;51.110;7.020;2022-08-03T13:16:21;38.90;75.00
8220;DHT22;4151;51.110;7.020;2022-08-03T13:18:48;38.60;73.70
8220;DHT22;4151;51.110;7.020;2022-08-03T13:21:14;36.60;75.60
8220;DHT22;4151;51.110;7.020;2022-08-03T13:23:41;35.90;77.70
8220;DHT22;4151;51.110;7.020;2022-08-03T13:26:08;36.80;79.10
8220;DHT22;4151;51.110;7.020;2022-08-03T13:28:34;38.50;76.00
8220;DHT22;4151;51.110;7.020;2022-08-03T13:31:00;38.20;74.80
8220;DHT22;4151;51.110;7.020;2022-08-03T13:33:26;37.40;75.40
8220;DHT22;4151;51.110;7.020;2022-08-03T13:35:52;37.30;75.50
8220;DHT22;4151;51.110;7.020;2022-08-03T13:38:18;37.20;75.80
8220;DHT22;4151;51.110;7.020;2022-08-03T13:40:43;36.80;75.70
8220;DHT22;4151;51.110;7.020;2022-08-03T13:43:09;35.20;78.50
8220;DHT22;4151;51.110;7.020;2022-08-03T13:45:35;34.90;79.80
8220;DHT22;4151;51.110;7.020;2022-08-03T13:48:00;35.10;79.50
8220;DHT22;4151;51.110;7.020;2022-08-03T13:50:26;35.90;78.20
8220;DHT22;4151;51.110;7.020;2022-08-03T13:52:52;36.50;76.80
8220;DHT22;4151;51.110;7.020;2022-08-03T13:55:17;37.20;77.00
8220;DHT22;4151;51.110;7.020;2022-08-03T13:57:43;38.70;73.50
8220;DHT22;4151;51.110;7.020;2022-08-03T14:00:09;40.70;72.30
8220;DHT22;4151;51.110;7.020;2022-08-03T14:02:36;42.20;70.40
8220;DHT22;4151;51.110;7.020;2022-08-03T14:05:02;42.80;67.20
8220;DHT22;4151;51.110;7.020;2022-08-03T14:07:27;42.20;65.70
8220;DHT22;4151;51.110;7.020;2022-08-03T14:09:53;41.00;66.60
8220;DHT22;4151;51.110;7.020;2022-08-03T14:12:18;41.90;67.40
8220;DHT22;4151;51.110;7.020;2022-08-03T14:14:44;42.90;66.20
8220;DHT22;4151;51.110;7.020;2022-08-03T14:17:09;43.40;64.50
8220;DHT22;4151;51.110;7.020;2022-08-03T14:19:35;43.80;64.50
8220;DHT22;4151;51.110;7.020;2022-08-03T14:22:00;44.70;63.60
8220;DHT22;4151;51.110;7.020;2022-08-03T14:24:27;45.60;61.40
8220;DHT22;4151;51.110;7.020;2022-08-03T14:26:53;46.40;59.40
8220;DHT22;4151;51.110;7.020;2022-08-03T14:29:19;45.60;59.90
8220;DHT22;4151;51.110;7.020;2022-08-03T14:31:44;45.30;59.90
8220;DHT22;4151;51.110;7.020;2022-08-03T14:34:10;45.80;58.70
8220;DHT22;4151;51.110;7.020;2022-08-03T14:36:35;46.20;58.80
8220;DHT22;4151;51.110;7.020;2022-08-03T14:39:01;47.70;57.40
8220;DHT22;4151;51.110;7.020;2022-08-03T14:41:26;47.70;55.10
8220;DHT22;4151;51.110;7.020;2022-08-03T14:43:52;48.30;54.90
8220;DHT22;4151;51.110;7.020;2022-08-03T14:46:18;48.40;55.30
8220;DHT22;4151;51.110;7.020;2022-08-03T14:48:44;48.30;53.60
8220;DHT22;4151;51.110;7.020;2022-08-03T14:51:10;43.40;56.20
8220;DHT22;4151;51.110;7.020;2022-08-03T14:53:35;42.90;58.40
8220;DHT22;4151;51.110;7.020;2022-08-03T14:56:01;43.90;58.10
8220;DHT22;4151;51.110;7.020;2022-08-03T14:58:26;45.10;57.20
8220;DHT22;4151;51.110;7.020;2022-08-03T15:00:53;45.80;56.40
8220;DHT22;4151;51.110;7.020;2022-08-03T15:03:20;45.60;55.10
8220;DHT22;4151;51.110;7.020;2022-08-03T15:05:53;44.90;55.60
8220;DHT22;4151;51.110;7.020;2022-08-03T15:08:20;45.10;55.80
8220;DHT22;4151;51.110;7.020;2022-08-03T15:10:45;45.30;55.40
8220;DHT22;4151;51.110;7.020;2022-08-03T15:13:12;44.90;55.40
8220;DHT22;4151;51.110;7.020;2022-08-03T15:15:37;44.90;55.60
8220;DHT22;4151;51.110;7.020;2022-08-03T15:18:03;45.50;55.30
8220;DHT22;4151;51.110;7.020;2022-08-03T15:20:29;45.30;54.90
8220;DHT22;4151;51.110;7.020;2022-08-03T15:22:54;44.40;55.40
8220;DHT22;4151;51.110;7.020;2022-08-03T15:25:20;42.90;56.90
8220;DHT22;4151;51.110;7.020;2022-08-03T15:27:45;41.90;57.20
8220;DHT22;4151;51.110;7.020;2022-08-03T15:30:11;42.20;57.70
8220;DHT22;4151;51.110;7.020;2022-08-03T15:32:37;43.30;56.80
8220;DHT22;4151;51.110;7.020;2022-08-03T15:35:03;44.10;56.20
8220;DHT22;4151;51.110;7.020;2022-08-03T15:37:28;45.50;54.90
8220;DHT22;4151;51.110;7.020;2022-08-03T15:39:54;46.70;54.70
8220;DHT22;4151;51.110;7.020;2022-08-03T15:42:20;48.10;54.00
8220;DHT22;4151;51.110;7.020;2022-08-03T15:44:45;47.10;52.20
8220;DHT22;4151;51.110;7.020;2022-08-03T15:47:11;44.90;54.40
8220;DHT22;4151;51.110;7.020;2022-08-03T15:49:36;43.20;55.40
8220;DHT22;4151;51.110;7.020;2022-08-03T15:52:03;41.00;58.20
8220;DHT22;4151;51.110;7.020;2022-08-03T15:54:28;40.60;59.20
8220;DHT22;4151;51.110;7.020;2022-08-03T15:56:54;41.30;57.80
8220;DHT22;4151;51.110;7.020;2022-08-03T15:59:20;42.40;57.10
8220;DHT22;4151;51.110;7.020;2022-08-03T16:01:47;43.20;56.50
8220;DHT22;4151;51.110;7.020;2022-08-03T16:04:13;43.50;55.80
8220;DHT22;4151;51.110;7.020;2022-08-03T16:06:39;43.00;56.60
8220;DHT22;4151;51.110;7.020;2022-08-03T16:09:05;43.10;57.00
8220;DHT22;4151;51.110;7.020;2022-08-03T16:11:32;43.60;56.60
8220;DHT22;4151;51.110;7.020;2022-08-03T16:13:58;44.70;55.20
8220;DHT22;4151;51.110;7.020;2022-08-03T16:16:24;45.60;54.80
8220;DHT22;4151;51.110;7.020;2022-08-03T16:18:50;44.20;55.00
8220;DHT22;4151;51.110;7.020;2022-08-03T16:21:15;42.80;55.60
8220;DHT22;4151;51.110;7.020;2022-08-03T16:23:41;43.40;56.40
8220;DHT22;4151;51.110;7.020;2022-08-03T16:26:07;44.90;55.40
8220;DHT22;4151;51.110;7.020;2022-08-03T16:28:32;46.70;53.50
8220;DHT22;4151;51.110;7.020;2022-08-03T16:31:02;47.50;53.00
8220;DHT22;4151;51.110;7.020;2022-08-03T16:33:28;47.50;52.40
8220;DHT22;4151;51.110;7.020;2022-08-03T16:35:54;48.10;52.30
8220;DHT22;4151;51.110;7.020;2022-08-03T16:38:19;48.30;52.00
8220;DHT22;4151;51.110;7.020;2022-08-03T16:40:47;48.40;52.40
8220;DHT22;4151;51.110;7.020;2022-08-03T16:52:11;48.50;51.80